sensor_id;sensor_type;location;lat;lon;timestamp;P1;durP1;ratioP1;P2;durP2;ratioP2
61527;SDS011;47395;42.032;-8.634;2023-07-02T00:00:36;5.80;;;3.80;;
61527;SDS011;47395;42.032;-8.634;2023-07-02T00:02:38;3.92;;;3.63;;
61527;SDS011;47395;42.032;-8.634;2023-07-02T00:04:39;5.80;;;3.80;;
61527;SDS011;47395;42.032;-8.634;2023-07-02T00:06:40;5.50;;;4.03;;
61527;SDS011;47395;42.032;-8.634;2023-07-02T00:08:41;4.00;;;3.60;;
61527;SDS011;47395;42.032;-8.634;2023-07-02T00:10:42;4.05;;;3.38;;
61527;SDS011;47395;42.032;-8.634;2023-07-02T00:12:43;4.05;;;3.28;;
61527;SDS011;47395;42.032;-8.634;2023-07-02T00:14:44;9.77;;;3.55;;
61527;SDS011;47395;42.032;-8.634;2023-07-02T00:16:45;4.75;;;3.70;;
61527;SDS011;47395;42.032;-8.634;2023-07-02T00:18:46;5.25;;;3.25;;
61527;SDS011;47395;42.032;-8.634;2023-07-02T00:20:53;3.75;;;3.40;;
61527;SDS011;47395;42.032;-8.634;2023-07-02T00:22:53;4.15;;;3.42;;
61527;SDS011;47395;42.032;-8.634;2023-07-02T00:24:55;3.75;;;3.22;;
61527;SDS011;47395;42.032;-8.634;2023-07-02T00:26:56;3.97;;;3.63;;
61527;SDS011;47395;42.032;-8.634;2023-07-02T00:28:57;4.55;;;3.40;;
61527;SDS011;47395;42.032;-8.634;2023-07-02T00:30:57;3.88;;;3.22;;
61527;SDS011;47395;42.032;-8.634;2023-07-02T00:32:58;8.60;;;3.30;;
61527;SDS011;47395;42.032;-8.634;2023-07-02T00:34:59;3.75;;;3.17;;
61527;SDS011;47395;42.032;-8.634;2023-07-02T00:37:01;5.97;;;3.30;;
61527;SDS011;47395;42.032;-8.634;2023-07-02T00:39:02;5.47;;;3.63;;
61527;SDS011;47395;42.032;-8.634;2023-07-02T00:41:03;3.60;;;3.38;;
61527;SDS011;47395;42.032;-8.634;2023-07-02T00:43:04;6.55;;;3.88;;
61527;SDS011;47395;42.032;-8.634;2023-07-02T00:45:05;3.90;;;3.60;;
61527;SDS011;47395;42.032;-8.634;2023-07-02T00:47:07;4.32;;;3.58;;
61527;SDS011;47395;42.032;-8.634;2023-07-02T00:49:08;5.28;;;3.60;;
61527;SDS011;47395;42.032;-8.634;2023-07-02T00:51:10;4.07;;;3.60;;
61527;SDS011;47395;42.032;-8.634;2023-07-02T00:53:14;5.57;;;3.47;;
61527;SDS011;47395;42.032;-8.634;2023-07-02T00:55:15;4.80;;;3.63;;
61527;SDS011;47395;42.032;-8.634;2023-07-02T00:57:16;6.47;;;3.92;;
61527;SDS011;47395;42.032;-8.634;2023-07-02T00:59:17;4.43;;;3.67;;
61527;SDS011;47395;42.032;-8.634;2023-07-02T01:01:18;6.18;;;3.17;;
61527;SDS011;47395;42.032;-8.634;2023-07-02T01:03:24;5.60;;;3.72;;
61527;SDS011;47395;42.032;-8.634;2023-07-02T01:05:26;7.05;;;3.97;;
61527;SDS011;47395;42.032;-8.634;2023-07-02T01:07:32;6.82;;;3.78;;
61527;SDS011;47395;42.032;-8.634;2023-07-02T01:09:36;5.03;;;3.38;;
61527;SDS011;47395;42.032;-8.634;2023-07-02T01:11:40;4.80;;;4.13;;
61527;SDS011;47395;42.032;-8.634;2023-07-02T01:13:44;4.72;;;4.00;;
61527;SDS011;47395;42.032;-8.634;2023-07-02T01:15:45;3.92;;;3.50;;
61527;SDS011;47395;42.032;-8.634;2023-07-02T01:17:46;4.07;;;3.67;;
61527;SDS011;47395;42.032;-8.634;2023-07-02T01:19:52;8.32;;;4.30;;
61527;SDS011;47395;42.032;-8.634;2023-07-02T01:21:59;6.22;;;3.80;;
61527;SDS011;47395;42.032;-8.634;2023-07-02T01:24:00;4.07;;;3.70;;
61527;SDS011;47395;42.032;-8.634;2023-07-02T01:26:01;3.63;;;3.33;;
61527;SDS011;47395;42.032;-8.634;2023-07-02T01:28:04;3.88;;;3.67;;
61527;SDS011;47395;42.032;-8.634;2023-07-02T01:30:05;9.85;;;4.30;;
61527;SDS011;47395;42.032;-8.634;2023-07-02T01:32:07;4.55;;;3.60;;
61527;SDS011;47395;42.032;-8.634;2023-07-02T01:34:08;4.20;;;3.80;;
61527;SDS011;47395;42.032;-8.634;2023-07-02T01:36:10;5.47;;;3.40;;
61527;SDS011;47395;42.032;-8.634;2023-07-02T01:38:10;3.80;;;3.50;;
61527;SDS011;47395;42.032;-8.634;2023-07-02T01:40:12;6.47;;;3.88;;
61527;SDS011;47395;42.032;-8.634;2023-07-02T01:42:13;4.45;;;3.90;;
61527;SDS011;47395;42.032;-8.634;2023-07-02T01:44:19;3.70;;;3.50;;
61527;SDS011;47395;42.032;-8.634;2023-07-02T01:46:21;3.42;;;3.20;;
61527;SDS011;47395;42.032;-8.634;2023-07-02T01:48:22;4.80;;;3.40;;
61527;SDS011;47395;42.032;-8.634;2023-07-02T01:50:22;4.22;;;3.83;;
61527;SDS011;47395;42.032;-8.634;2023-07-02T01:52:23;3.88;;;3.45;;
61527;SDS011;47395;42.032;-8.634;2023-07-02T01:54:25;3.60;;;3.30;;
61527;SDS011;47395;42.032;-8.634;2023-07-02T01:56:30;3.75;;;3.45;;
61527;SDS011;47395;42.032;-8.634;2023-07-02T01:58:30;4.15;;;3.75;;
61527;SDS011;47395;42.032;-8.634;2023-07-02T02:00:31;3.92;;;3.53;;
61527;SDS011;47395;42.032;-8.634;2023-07-02T02:02:32;4.10;;;3.75;;
61527;SDS011;47395;42.032;-8.634;2023-07-02T02:04:33;3.90;;;3.60;;
61527;SDS011;47395;42.032;-8.634;2023-07-02T02:06:34;6.72;;;3.58;;
61527;SDS011;47395;42.032;-8.634;2023-07-02T02:08:35;4.40;;;3.90;;
61527;SDS011;47395;42.032;-8.634;2023-07-02T02:10:36;4.03;;;3.63;;
61527;SDS011;47395;42.032;-8.634;2023-07-02T02:12:36;5.75;;;3.30;;
61527;SDS011;47395;42.032;-8.634;2023-07-02T02:14:40;3.80;;;3.20;;
61527;SDS011;47395;42.032;-8.634;2023-07-02T02:16:42;3.42;;;3.22;;
61527;SDS011;47395;42.032;-8.634;2023-07-02T02:18:45;4.63;;;3.65;;
61527;SDS011;47395;42.032;-8.634;2023-07-02T02:20:46;4.90;;;3.25;;
61527;SDS011;47395;42.032;-8.634;2023-07-02T02:22:47;3.80;;;3.50;;
61527;SDS011;47395;42.032;-8.634;2023-07-02T02:24:48;5.28;;;3.80;;
61527;SDS011;47395;42.032;-8.634;2023-07-02T02:26:49;4.03;;;3.72;;
61527;SDS011;47395;42.032;-8.634;2023-07-02T02:28:49;3.92;;;3.38;;
61527;SDS011;47395;42.032;-8.634;2023-07-02T02:30:50;3.50;;;3.30;;
61527;SDS011;47395;42.032;-8.634;2023-07-02T02:32:52;4.15;;;3.80;;
61527;SDS011;47395;42.032;-8.634;2023-07-02T02:34:53;3.80;;;3.50;;
61527;SDS011;47395;42.032;-8.634;2023-07-02T02:36:54;5.80;;;3.45;;
61527;SDS011;47395;42.032;-8.634;2023-07-02T02:38:56;3.70;;;3.40;;
61527;SDS011;47395;42.032;-8.634;2023-07-02T02:40:59;4.25;;;3.70;;
61527;SDS011;47395;42.032;-8.634;2023-07-02T02:43:01;3.28;;;2.97;;
61527;SDS011;47395;42.032;-8.634;2023-07-02T02:45:02;3.55;;;3.35;;
61527;SDS011;47395;42.032;-8.634;2023-07-02T02:47:03;4.05;;;3.70;;
61527;SDS011;47395;42.032;-8.634;2023-07-02T02:49:05;4.40;;;3.97;;
61527;SDS011;47395;42.032;-8.634;2023-07-02T02:51:06;4.63;;;3.67;;
61527;SDS011;47395;42.032;-8.634;2023-07-02T02:53:07;4.47;;;4.07;;
61527;SDS011;47395;42.032;-8.634;2023-07-02T02:55:09;4.45;;;3.40;;
61527;SDS011;47395;42.032;-8.634;2023-07-02T02:57:12;4.45;;;3.47;;
61527;SDS011;47395;42.032;-8.634;2023-07-02T02:59:13;3.83;;;3.60;;
61527;SDS011;47395;42.032;-8.634;2023-07-02T03:01:14;3.90;;;3.50;;
61527;SDS011;47395;42.032;-8.634;2023-07-02T03:03:15;7.55;;;3.70;;
61527;SDS011;47395;42.032;-8.634;2023-07-02T03:05:20;4.50;;;3.88;;
61527;SDS011;47395;42.032;-8.634;2023-07-02T03:07:21;3.90;;;3.63;;
61527;SDS011;47395;42.032;-8.634;2023-07-02T03:09:22;5.47;;;3.97;;
61527;SDS011;47395;42.032;-8.634;2023-07-02T03:11:23;4.18;;;3.88;;
61527;SDS011;47395;42.032;-8.634;2023-07-02T03:13:24;4.18;;;3.63;;
61527;SDS011;47395;42.032;-8.634;2023-07-02T03:15:25;3.63;;;3.33;;
61527;SDS011;47395;42.032;-8.634;2023-07-02T03:17:25;6.18;;;3.38;;
61527;SDS011;47395;42.032;-8.634;2023-07-02T03:19:26;3.85;;;3.58;;
61527;SDS011;47395;42.032;-8.634;2023-07-02T03:21:28;3.67;;;3.47;;
61527;SDS011;47395;42.032;-8.634;2023-07-02T03:23:30;3.20;;;2.80;;
61527;SDS011;47395;42.032;-8.634;2023-07-02T03:25:31;7.78;;;3.88;;
61527;SDS011;47395;42.032;-8.634;2023-07-02T03:27:31;5.45;;;3.70;;
61527;SDS011;47395;42.032;-8.634;2023-07-02T03:29:33;3.83;;;3.38;;
61527;SDS011;47395;42.032;-8.634;2023-07-02T03:31:35;5.72;;;3.60;;
61527;SDS011;47395;42.032;-8.634;2023-07-02T03:33:36;6.03;;;4.55;;
61527;SDS011;47395;42.032;-8.634;2023-07-02T03:35:36;4.80;;;4.10;;
61527;SDS011;47395;42.032;-8.634;2023-07-02T03:37:37;4.13;;;3.88;;
61527;SDS011;47395;42.032;-8.634;2023-07-02T03:39:38;4.53;;;4.13;;
61527;SDS011;47395;42.032;-8.634;2023-07-02T03:41:39;4.80;;;4.03;;
61527;SDS011;47395;42.032;-8.634;2023-07-02T03:43:40;4.03;;;3.72;;
61527;SDS011;47395;42.032;-8.634;2023-07-02T03:45:41;3.97;;;3.75;;
61527;SDS011;47395;42.032;-8.634;2023-07-02T03:47:41;4.63;;;4.22;;
61527;SDS011;47395;42.032;-8.634;2023-07-02T03:49:42;4.78;;;3.85;;
61527;SDS011;47395;42.032;-8.634;2023-07-02T03:51:43;4.07;;;3.78;;
61527;SDS011;47395;42.032;-8.634;2023-07-02T03:53:44;4.97;;;4.22;;
61527;SDS011;47395;42.032;-8.634;2023-07-02T03:55:45;7.40;;;3.90;;
61527;SDS011;47395;42.032;-8.634;2023-07-02T03:57:45;4.15;;;3.70;;
61527;SDS011;47395;42.032;-8.634;2023-07-02T03:59:46;3.80;;;3.47;;
61527;SDS011;47395;42.032;-8.634;2023-07-02T04:03:57;3.55;;;3.25;;
61527;SDS011;47395;42.032;-8.634;2023-07-02T04:05:58;4.10;;;3.67;;
61527;SDS011;47395;42.032;-8.634;2023-07-02T04:07:59;4.07;;;3.78;;
61527;SDS011;47395;42.032;-8.634;2023-07-02T04:09:59;7.18;;;4.18;;
61527;SDS011;47395;42.032;-8.634;2023-07-02T04:12:00;4.22;;;3.90;;
61527;SDS011;47395;42.032;-8.634;2023-07-02T04:14:02;3.67;;;3.40;;
61527;SDS011;47395;42.032;-8.634;2023-07-02T04:16:03;3.20;;;3.00;;
61527;SDS011;47395;42.032;-8.634;2023-07-02T04:18:04;2.90;;;2.80;;
61527;SDS011;47395;42.032;-8.634;2023-07-02T04:20:05;2.97;;;2.78;;
61527;SDS011;47395;42.032;-8.634;2023-07-02T04:22:07;3.85;;;3.50;;
61527;SDS011;47395;42.032;-8.634;2023-07-02T04:24:08;3.80;;;3.22;;
61527;SDS011;47395;42.032;-8.634;2023-07-02T04:26:09;3.08;;;2.88;;
61527;SDS011;47395;42.032;-8.634;2023-07-02T04:28:10;2.72;;;2.45;;
61527;SDS011;47395;42.032;-8.634;2023-07-02T04:30:12;2.78;;;2.58;;
61527;SDS011;47395;42.032;-8.634;2023-07-02T04:32:14;2.90;;;2.80;;
61527;SDS011;47395;42.032;-8.634;2023-07-02T04:34:15;4.60;;;2.92;;
61527;SDS011;47395;42.032;-8.634;2023-07-02T04:36:16;3.15;;;2.95;;
61527;SDS011;47395;42.032;-8.634;2023-07-02T04:38:16;2.70;;;2.50;;
61527;SDS011;47395;42.032;-8.634;2023-07-02T04:40:17;2.55;;;2.45;;
61527;SDS011;47395;42.032;-8.634;2023-07-02T04:42:18;2.55;;;2.40;;
61527;SDS011;47395;42.032;-8.634;2023-07-02T04:44:19;4.00;;;2.30;;
61527;SDS011;47395;42.032;-8.634;2023-07-02T04:46:29;2.78;;;2.60;;
61527;SDS011;47395;42.032;-8.634;2023-07-02T04:48:30;2.50;;;2.30;;
61527;SDS011;47395;42.032;-8.634;2023-07-02T04:50:31;2.72;;;2.53;;
61527;SDS011;47395;42.032;-8.634;2023-07-02T04:52:32;2.38;;;2.28;;
61527;SDS011;47395;42.032;-8.634;2023-07-02T04:54:32;2.47;;;2.38;;
61527;SDS011;47395;42.032;-8.634;2023-07-02T04:56:33;2.60;;;2.40;;
61527;SDS011;47395;42.032;-8.634;2023-07-02T04:58:34;3.22;;;2.38;;
61527;SDS011;47395;42.032;-8.634;2023-07-02T05:00:35;4.30;;;2.83;;
61527;SDS011;47395;42.032;-8.634;2023-07-02T05:02:36;3.40;;;2.35;;
61527;SDS011;47395;42.032;-8.634;2023-07-02T05:04:37;3.10;;;2.35;;
61527;SDS011;47395;42.032;-8.634;2023-07-02T05:06:39;2.65;;;2.45;;
61527;SDS011;47395;42.032;-8.634;2023-07-02T05:08:39;2.63;;;2.35;;
61527;SDS011;47395;42.032;-8.634;2023-07-02T05:10:40;2.22;;;2.13;;
61527;SDS011;47395;42.032;-8.634;2023-07-02T05:12:41;2.42;;;2.30;;
61527;SDS011;47395;42.032;-8.634;2023-07-02T05:14:42;2.20;;;2.10;;
61527;SDS011;47395;42.032;-8.634;2023-07-02T05:16:43;2.92;;;2.30;;
61527;SDS011;47395;42.032;-8.634;2023-07-02T05:18:44;6.25;;;2.50;;
61527;SDS011;47395;42.032;-8.634;2023-07-02T05:20:44;2.35;;;2.25;;
61527;SDS011;47395;42.032;-8.634;2023-07-02T05:22:45;2.80;;;2.60;;
61527;SDS011;47395;42.032;-8.634;2023-07-02T05:24:46;2.58;;;2.38;;
61527;SDS011;47395;42.032;-8.634;2023-07-02T05:26:47;2.58;;;2.45;;
61527;SDS011;47395;42.032;-8.634;2023-07-02T05:28:48;2.45;;;2.35;;
61527;SDS011;47395;42.032;-8.634;2023-07-02T05:30:49;2.17;;;2.08;;
61527;SDS011;47395;42.032;-8.634;2023-07-02T05:32:51;2.70;;;2.60;;
61527;SDS011;47395;42.032;-8.634;2023-07-02T05:34:52;3.17;;;2.10;;
61527;SDS011;47395;42.032;-8.634;2023-07-02T05:36:53;3.33;;;2.22;;
61527;SDS011;47395;42.032;-8.634;2023-07-02T05:38:53;2.00;;;1.90;;
61527;SDS011;47395;42.032;-8.634;2023-07-02T05:40:54;3.92;;;2.30;;
61527;SDS011;47395;42.032;-8.634;2023-07-02T05:42:55;2.15;;;2.05;;
61527;SDS011;47395;42.032;-8.634;2023-07-02T05:44:56;2.28;;;2.08;;
61527;SDS011;47395;42.032;-8.634;2023-07-02T05:46:56;2.17;;;2.08;;
61527;SDS011;47395;42.032;-8.634;2023-07-02T05:48:57;2.97;;;2.67;;
61527;SDS011;47395;42.032;-8.634;2023-07-02T05:51:00;3.22;;;2.25;;
61527;SDS011;47395;42.032;-8.634;2023-07-02T05:53:01;2.35;;;2.08;;
61527;SDS011;47395;42.032;-8.634;2023-07-02T05:55:02;2.47;;;1.90;;
61527;SDS011;47395;42.032;-8.634;2023-07-02T05:57:02;2.03;;;1.92;;
61527;SDS011;47395;42.032;-8.634;2023-07-02T05:59:04;3.67;;;2.05;;
61527;SDS011;47395;42.032;-8.634;2023-07-02T06:01:04;2.83;;;2.25;;
61527;SDS011;47395;42.032;-8.634;2023-07-02T06:03:06;2.08;;;1.98;;
61527;SDS011;47395;42.032;-8.634;2023-07-02T06:05:07;1.92;;;1.83;;
61527;SDS011;47395;42.032;-8.634;2023-07-02T06:07:08;5.53;;;1.83;;
61527;SDS011;47395;42.032;-8.634;2023-07-02T06:09:09;3.22;;;1.95;;
61527;SDS011;47395;42.032;-8.634;2023-07-02T06:11:10;2.10;;;1.95;;
61527;SDS011;47395;42.032;-8.634;2023-07-02T06:13:11;2.30;;;1.95;;
61527;SDS011;47395;42.032;-8.634;2023-07-02T06:15:12;1.80;;;1.70;;
61527;SDS011;47395;42.032;-8.634;2023-07-02T06:17:13;2.03;;;1.85;;
61527;SDS011;47395;42.032;-8.634;2023-07-02T06:19:14;1.83;;;1.70;;
61527;SDS011;47395;42.032;-8.634;2023-07-02T06:21:14;2.70;;;1.90;;
61527;SDS011;47395;42.032;-8.634;2023-07-02T06:23:15;1.98;;;1.88;;
61527;SDS011;47395;42.032;-8.634;2023-07-02T06:25:16;1.77;;;1.73;;
61527;SDS011;47395;42.032;-8.634;2023-07-02T06:27:17;1.83;;;1.67;;
61527;SDS011;47395;42.032;-8.634;2023-07-02T06:29:18;2.88;;;1.58;;
61527;SDS011;47395;42.032;-8.634;2023-07-02T06:31:19;2.20;;;1.60;;
61527;SDS011;47395;42.032;-8.634;2023-07-02T06:33:19;2.60;;;1.98;;
61527;SDS011;47395;42.032;-8.634;2023-07-02T06:35:20;1.85;;;1.73;;
61527;SDS011;47395;42.032;-8.634;2023-07-02T06:37:21;3.08;;;1.75;;
61527;SDS011;47395;42.032;-8.634;2023-07-02T06:39:22;2.85;;;1.73;;
61527;SDS011;47395;42.032;-8.634;2023-07-02T06:41:23;2.63;;;1.90;;
61527;SDS011;47395;42.032;-8.634;2023-07-02T06:43:24;1.85;;;1.75;;
61527;SDS011;47395;42.032;-8.634;2023-07-02T06:45:24;3.45;;;1.77;;
61527;SDS011;47395;42.032;-8.634;2023-07-02T06:47:25;6.60;;;2.00;;
61527;SDS011;47395;42.032;-8.634;2023-07-02T06:49:26;8.48;;;2.20;;
61527;SDS011;47395;42.032;-8.634;2023-07-02T06:51:27;2.03;;;1.80;;
61527;SDS011;47395;42.032;-8.634;2023-07-02T06:53:29;3.63;;;1.58;;
61527;SDS011;47395;42.032;-8.634;2023-07-02T06:55:30;2.28;;;1.73;;
61527;SDS011;47395;42.032;-8.634;2023-07-02T06:57:31;1.42;;;1.42;;
61527;SDS011;47395;42.032;-8.634;2023-07-02T06:59:32;2.13;;;1.70;;
61527;SDS011;47395;42.032;-8.634;2023-07-02T07:01:32;1.77;;;1.67;;
61527;SDS011;47395;42.032;-8.634;2023-07-02T07:03:34;4.20;;;1.60;;
61527;SDS011;47395;42.032;-8.634;2023-07-02T07:05:35;4.40;;;2.25;;
61527;SDS011;47395;42.032;-8.634;2023-07-02T07:07:36;3.30;;;1.65;;
61527;SDS011;47395;42.032;-8.634;2023-07-02T07:09:37;1.73;;;1.40;;
61527;SDS011;47395;42.032;-8.634;2023-07-02T07:11:38;1.90;;;1.65;;
61527;SDS011;47395;42.032;-8.634;2023-07-02T07:13:39;1.88;;;1.58;;
61527;SDS011;47395;42.032;-8.634;2023-07-02T07:15:40;2.90;;;1.98;;
61527;SDS011;47395;42.032;-8.634;2023-07-02T07:17:42;2.67;;;1.73;;
61527;SDS011;47395;42.032;-8.634;2023-07-02T07:19:43;1.60;;;1.55;;
61527;SDS011;47395;42.032;-8.634;2023-07-02T07:21:44;3.00;;;1.58;;
61527;SDS011;47395;42.032;-8.634;2023-07-02T07:23:44;1.70;;;1.60;;
61527;SDS011;47395;42.032;-8.634;2023-07-02T07:25:45;2.55;;;1.73;;
61527;SDS011;47395;42.032;-8.634;2023-07-02T07:27:46;1.95;;;1.65;;
61527;SDS011;47395;42.032;-8.634;2023-07-02T07:29:47;1.70;;;1.60;;
61527;SDS011;47395;42.032;-8.634;2023-07-02T07:31:48;1.58;;;1.58;;
61527;SDS011;47395;42.032;-8.634;2023-07-02T07:33:48;1.63;;;1.50;;
61527;SDS011;47395;42.032;-8.634;2023-07-02T07:35:49;1.48;;;1.38;;
61527;SDS011;47395;42.032;-8.634;2023-07-02T07:37:50;1.52;;;1.42;;
61527;SDS011;47395;42.032;-8.634;2023-07-02T07:39:51;1.70;;;1.45;;
61527;SDS011;47395;42.032;-8.634;2023-07-02T07:41:52;1.67;;;1.58;;
61527;SDS011;47395;42.032;-8.634;2023-07-02T07:43:53;1.40;;;1.25;;
61527;SDS011;47395;42.032;-8.634;2023-07-02T07:45:54;1.70;;;1.60;;
61527;SDS011;47395;42.032;-8.634;2023-07-02T07:47:55;1.30;;;1.30;;
61527;SDS011;47395;42.032;-8.634;2023-07-02T07:49:56;2.97;;;1.90;;
61527;SDS011;47395;42.032;-8.634;2023-07-02T07:51:57;1.60;;;1.50;;
61527;SDS011;47395;42.032;-8.634;2023-07-02T07:53:58;2.40;;;1.38;;
61527;SDS011;47395;42.032;-8.634;2023-07-02T07:55:59;1.33;;;1.33;;
61527;SDS011;47395;42.032;-8.634;2023-07-02T07:58:00;2.67;;;1.92;;
61527;SDS011;47395;42.032;-8.634;2023-07-02T08:00:01;2.00;;;1.83;;
61527;SDS011;47395;42.032;-8.634;2023-07-02T08:02:16;2.08;;;1.50;;
61527;SDS011;47395;42.032;-8.634;2023-07-02T08:04:17;2.45;;;1.48;;
61527;SDS011;47395;42.032;-8.634;2023-07-02T08:06:18;1.52;;;1.42;;
61527;SDS011;47395;42.032;-8.634;2023-07-02T08:08:19;1.10;;;1.00;;
61527;SDS011;47395;42.032;-8.634;2023-07-02T08:10:20;1.38;;;1.33;;
61527;SDS011;47395;42.032;-8.634;2023-07-02T08:12:23;3.95;;;1.60;;
61527;SDS011;47395;42.032;-8.634;2023-07-02T08:14:24;5.35;;;1.55;;
61527;SDS011;47395;42.032;-8.634;2023-07-02T08:16:24;1.58;;;1.48;;
61527;SDS011;47395;42.032;-8.634;2023-07-02T08:18:25;5.60;;;1.65;;
61527;SDS011;47395;42.032;-8.634;2023-07-02T08:20:26;1.50;;;1.40;;
61527;SDS011;47395;42.032;-8.634;2023-07-02T08:22:27;1.27;;;1.10;;
61527;SDS011;47395;42.032;-8.634;2023-07-02T08:24:28;1.55;;;1.45;;
61527;SDS011;47395;42.032;-8.634;2023-07-02T08:26:31;1.33;;;1.25;;
61527;SDS011;47395;42.032;-8.634;2023-07-02T08:28:32;1.55;;;1.30;;
61527;SDS011;47395;42.032;-8.634;2023-07-02T08:30:32;1.50;;;1.38;;
61527;SDS011;47395;42.032;-8.634;2023-07-02T08:32:33;1.65;;;1.55;;
61527;SDS011;47395;42.032;-8.634;2023-07-02T08:34:34;1.13;;;1.13;;
61527;SDS011;47395;42.032;-8.634;2023-07-02T08:36:35;1.77;;;1.48;;
61527;SDS011;47395;42.032;-8.634;2023-07-02T08:38:36;2.45;;;1.45;;
61527;SDS011;47395;42.032;-8.634;2023-07-02T08:40:39;1.70;;;1.60;;
61527;SDS011;47395;42.032;-8.634;2023-07-02T08:42:41;1.40;;;1.30;;
61527;SDS011;47395;42.032;-8.634;2023-07-02T08:44:45;1.17;;;1.17;;
61527;SDS011;47395;42.032;-8.634;2023-07-02T08:46:47;1.02;;;1.02;;
61527;SDS011;47395;42.032;-8.634;2023-07-02T08:48:53;2.72;;;1.48;;
61527;SDS011;47395;42.032;-8.634;2023-07-02T08:50:54;1.60;;;1.40;;
61527;SDS011;47395;42.032;-8.634;2023-07-02T08:52:58;1.77;;;1.48;;
61527;SDS011;47395;42.032;-8.634;2023-07-02T08:54:59;1.50;;;1.40;;
61527;SDS011;47395;42.032;-8.634;2023-07-02T08:57:00;1.30;;;1.30;;
61527;SDS011;47395;42.032;-8.634;2023-07-02T08:59:08;2.15;;;1.17;;
61527;SDS011;47395;42.032;-8.634;2023-07-02T09:01:10;2.53;;;1.42;;
61527;SDS011;47395;42.032;-8.634;2023-07-02T09:03:13;1.65;;;1.40;;
61527;SDS011;47395;42.032;-8.634;2023-07-02T09:05:15;3.20;;;1.13;;
61527;SDS011;47395;42.032;-8.634;2023-07-02T09:07:16;1.38;;;1.27;;
61527;SDS011;47395;42.032;-8.634;2023-07-02T09:09:17;1.40;;;1.30;;
61527;SDS011;47395;42.032;-8.634;2023-07-02T09:11:18;2.55;;;1.20;;
61527;SDS011;47395;42.032;-8.634;2023-07-02T09:13:20;1.38;;;1.20;;
61527;SDS011;47395;42.032;-8.634;2023-07-02T09:15:21;1.50;;;1.40;;
61527;SDS011;47395;42.032;-8.634;2023-07-02T09:17:26;2.65;;;1.40;;
61527;SDS011;47395;42.032;-8.634;2023-07-02T09:19:31;1.63;;;1.35;;
61527;SDS011;47395;42.032;-8.634;2023-07-02T09:21:42;1.50;;;1.40;;
61527;SDS011;47395;42.032;-8.634;2023-07-02T09:23:47;1.30;;;1.30;;
61527;SDS011;47395;42.032;-8.634;2023-07-02T09:25:48;1.35;;;1.25;;
61527;SDS011;47395;42.032;-8.634;2023-07-02T09:27:48;1.23;;;1.20;;
61527;SDS011;47395;42.032;-8.634;2023-07-02T09:29:50;1.67;;;1.08;;
61527;SDS011;47395;42.032;-8.634;2023-07-02T09:31:58;2.80;;;1.40;;
61527;SDS011;47395;42.032;-8.634;2023-07-02T09:34:01;1.27;;;1.15;;
61527;SDS011;47395;42.032;-8.634;2023-07-02T09:36:03;1.40;;;1.30;;
61527;SDS011;47395;42.032;-8.634;2023-07-02T09:38:04;1.02;;;1.02;;
61527;SDS011;47395;42.032;-8.634;2023-07-02T09:40:06;1.70;;;1.60;;
61527;SDS011;47395;42.032;-8.634;2023-07-02T09:42:09;1.20;;;1.20;;
61527;SDS011;47395;42.032;-8.634;2023-07-02T09:44:10;5.85;;;1.20;;
61527;SDS011;47395;42.032;-8.634;2023-07-02T09:46:13;1.02;;;1.02;;
61527;SDS011;47395;42.032;-8.634;2023-07-02T09:48:14;1.63;;;1.17;;
61527;SDS011;47395;42.032;-8.634;2023-07-02T09:50:16;1.33;;;1.23;;
61527;SDS011;47395;42.032;-8.634;2023-07-02T09:52:19;3.33;;;1.30;;
61527;SDS011;47395;42.032;-8.634;2023-07-02T09:54:20;1.35;;;1.25;;
61527;SDS011;47395;42.032;-8.634;2023-07-02T09:56:21;1.05;;;1.05;;
61527;SDS011;47395;42.032;-8.634;2023-07-02T09:58:22;1.25;;;1.15;;
61527;SDS011;47395;42.032;-8.634;2023-07-02T10:00:23;1.40;;;1.30;;
61527;SDS011;47395;42.032;-8.634;2023-07-02T10:02:24;1.10;;;1.08;;
61527;SDS011;47395;42.032;-8.634;2023-07-02T10:04:25;1.08;;;1.00;;
61527;SDS011;47395;42.032;-8.634;2023-07-02T10:06:26;4.75;;;1.00;;
61527;SDS011;47395;42.032;-8.634;2023-07-02T10:08:26;1.15;;;1.15;;
61527;SDS011;47395;42.032;-8.634;2023-07-02T10:10:30;1.55;;;1.45;;
61527;SDS011;47395;42.032;-8.634;2023-07-02T10:12:32;1.05;;;1.05;;
61527;SDS011;47395;42.032;-8.634;2023-07-02T10:14:42;3.25;;;1.38;;
61527;SDS011;47395;42.032;-8.634;2023-07-02T10:16:53;1.15;;;1.10;;
61527;SDS011;47395;42.032;-8.634;2023-07-02T10:18:55;1.30;;;1.20;;
61527;SDS011;47395;42.032;-8.634;2023-07-02T10:20:56;1.13;;;1.13;;
61527;SDS011;47395;42.032;-8.634;2023-07-02T10:22:57;1.38;;;1.27;;
61527;SDS011;47395;42.032;-8.634;2023-07-02T10:24:58;1.45;;;1.35;;
61527;SDS011;47395;42.032;-8.634;2023-07-02T10:27:03;1.33;;;1.23;;
61527;SDS011;47395;42.032;-8.634;2023-07-02T10:29:05;0.90;;;0.90;;
61527;SDS011;47395;42.032;-8.634;2023-07-02T10:31:19;1.65;;;1.17;;
61527;SDS011;47395;42.032;-8.634;2023-07-02T10:33:21;1.42;;;1.30;;
61527;SDS011;47395;42.032;-8.634;2023-07-02T10:35:22;1.30;;;1.15;;
61527;SDS011;47395;42.032;-8.634;2023-07-02T10:37:22;1.30;;;1.30;;
61527;SDS011;47395;42.032;-8.634;2023-07-02T10:39:23;1.35;;;1.27;;
61527;SDS011;47395;42.032;-8.634;2023-07-02T10:41:29;1.33;;;1.08;;
61527;SDS011;47395;42.032;-8.634;2023-07-02T10:43:30;1.35;;;1.25;;
61527;SDS011;47395;42.032;-8.634;2023-07-02T10:45:32;1.02;;;1.02;;
61527;SDS011;47395;42.032;-8.634;2023-07-02T10:47:34;3.53;;;1.15;;
61527;SDS011;47395;42.032;-8.634;2023-07-02T10:49:39;2.03;;;1.40;;
61527;SDS011;47395;42.032;-8.634;2023-07-02T10:51:40;1.27;;;1.17;;
61527;SDS011;47395;42.032;-8.634;2023-07-02T10:53:41;1.45;;;1.35;;
61527;SDS011;47395;42.032;-8.634;2023-07-02T10:55:42;1.70;;;1.45;;
61527;SDS011;47395;42.032;-8.634;2023-07-02T10:57:43;1.92;;;1.05;;
61527;SDS011;47395;42.032;-8.634;2023-07-02T10:59:44;1.30;;;1.30;;
61527;SDS011;47395;42.032;-8.634;2023-07-02T11:01:45;1.10;;;1.10;;
61527;SDS011;47395;42.032;-8.634;2023-07-02T11:04:01;1.33;;;1.23;;
61527;SDS011;47395;42.032;-8.634;2023-07-02T11:06:04;1.20;;;1.20;;
61527;SDS011;47395;42.032;-8.634;2023-07-02T11:08:08;3.15;;;1.50;;
61527;SDS011;47395;42.032;-8.634;2023-07-02T11:10:09;1.75;;;1.27;;
61527;SDS011;47395;42.032;-8.634;2023-07-02T11:12:17;1.35;;;1.25;;
61527;SDS011;47395;42.032;-8.634;2023-07-02T11:14:34;1.60;;;1.50;;
61527;SDS011;47395;42.032;-8.634;2023-07-02T11:16:35;1.50;;;1.40;;
61527;SDS011;47395;42.032;-8.634;2023-07-02T11:18:36;1.30;;;1.30;;
61527;SDS011;47395;42.032;-8.634;2023-07-02T11:20:37;1.85;;;1.20;;
61527;SDS011;47395;42.032;-8.634;2023-07-02T11:22:39;1.00;;;1.00;;
61527;SDS011;47395;42.032;-8.634;2023-07-02T11:24:41;1.60;;;1.10;;
61527;SDS011;47395;42.032;-8.634;2023-07-02T11:26:42;2.35;;;1.10;;
61527;SDS011;47395;42.032;-8.634;2023-07-02T11:28:50;1.98;;;1.45;;
61527;SDS011;47395;42.032;-8.634;2023-07-02T11:30:51;1.10;;;1.10;;
61527;SDS011;47395;42.032;-8.634;2023-07-02T11:32:53;1.75;;;1.27;;
61527;SDS011;47395;42.032;-8.634;2023-07-02T11:34:54;1.30;;;1.20;;
61527;SDS011;47395;42.032;-8.634;2023-07-02T11:36:55;1.40;;;1.30;;
61527;SDS011;47395;42.032;-8.634;2023-07-02T11:38:56;1.13;;;1.02;;
61527;SDS011;47395;42.032;-8.634;2023-07-02T11:40:57;0.90;;;0.90;;
61527;SDS011;47395;42.032;-8.634;2023-07-02T11:42:58;1.67;;;1.30;;
61527;SDS011;47395;42.032;-8.634;2023-07-02T11:44:58;1.30;;;1.30;;
61527;SDS011;47395;42.032;-8.634;2023-07-02T11:46:59;1.27;;;1.27;;
61527;SDS011;47395;42.032;-8.634;2023-07-02T11:49:00;1.20;;;1.10;;
61527;SDS011;47395;42.032;-8.634;2023-07-02T11:51:02;1.23;;;1.20;;
61527;SDS011;47395;42.032;-8.634;2023-07-02T11:53:03;1.55;;;1.50;;
61527;SDS011;47395;42.032;-8.634;2023-07-02T11:55:03;1.20;;;1.20;;
61527;SDS011;47395;42.032;-8.634;2023-07-02T11:57:05;1.08;;;1.05;;
61527;SDS011;47395;42.032;-8.634;2023-07-02T11:59:06;5.50;;;0.95;;
61527;SDS011;47395;42.032;-8.634;2023-07-02T12:01:07;1.48;;;1.27;;
61527;SDS011;47395;42.032;-8.634;2023-07-02T12:03:08;1.17;;;1.17;;